createdAt,value
2019-06-20T00:00:37.055Z,19.58
2019-06-20T00:03:07.629Z,19.56
2019-06-20T00:05:38.229Z,19.38
2019-06-20T00:08:09.542Z,19.44
2019-06-20T00:10:39.813Z,19.53
2019-06-20T00:13:10.215Z,19.56
2019-06-20T00:15:41.127Z,19.51
2019-06-20T00:18:12.883Z,19.44
2019-06-20T00:20:43.195Z,19.41
2019-06-20T00:23:13.410Z,19.34
2019-06-20T00:25:46.601Z,19.30
2019-06-20T00:28:18.577Z,19.29
2019-06-20T00:30:49.768Z,19.01
2019-06-20T00:33:19.982Z,18.95
2019-06-20T00:35:52.420Z,19.05
2019-06-20T00:38:22.621Z,19.03
2019-06-20T00:40:52.840Z,18.99
2019-06-20T00:43:23.022Z,18.93
2019-06-20T00:45:53.196Z,18.66
2019-06-20T00:48:23.370Z,18.77
2019-06-20T00:50:53.539Z,18.74
2019-06-20T00:53:23.688Z,18.40
2019-06-20T00:55:53.932Z,18.52
2019-06-20T00:58:24.198Z,18.48
2019-06-20T01:00:54.391Z,18.50
2019-06-20T01:03:24.602Z,18.29
2019-06-20T01:05:54.761Z,18.62
2019-06-20T01:08:25.012Z,18.67
2019-06-20T01:10:55.232Z,18.69
2019-06-20T01:13:33.716Z,18.70
2019-06-20T01:15:57.429Z,18.73
2019-06-20T01:18:27.606Z,18.67
2019-06-20T01:20:57.952Z,18.57
2019-06-20T01:23:28.071Z,18.65
2019-06-20T01:25:58.269Z,18.52
2019-06-20T01:28:28.443Z,18.50
2019-06-20T01:30:58.633Z,18.50
2019-06-20T01:33:28.891Z,18.48
2019-06-20T01:35:59.109Z,18.43
2019-06-20T01:38:29.255Z,18.06
2019-06-20T01:40:59.425Z,18.19
2019-06-20T01:43:29.667Z,18.34
2019-06-20T01:45:59.916Z,18.29
2019-06-20T01:48:33.319Z,18.36
2019-06-20T01:51:04.725Z,18.42
2019-06-20T01:53:37.994Z,18.46
2019-06-20T01:56:08.265Z,18.49
2019-06-20T01:58:38.503Z,18.53
2019-06-20T02:01:10.144Z,18.47
2019-06-20T02:03:40.321Z,18.56
2019-06-20T02:06:10.539Z,18.63
2019-06-20T02:08:40.721Z,18.36
2019-06-20T02:11:10.858Z,18.61
2019-06-20T02:13:41.057Z,18.56
2019-06-20T02:16:11.268Z,18.61
2019-06-20T02:18:41.450Z,18.61
2019-06-20T02:21:11.599Z,18.50
2019-06-20T02:23:42.941Z,18.52
2019-06-20T02:26:13.090Z,18.52
2019-06-20T02:28:43.455Z,18.49
2019-06-20T02:31:13.615Z,18.41
2019-06-20T02:33:43.805Z,18.39
2019-06-20T02:36:13.991Z,18.42
2019-06-20T02:38:45.641Z,18.44
2019-06-20T02:41:17.889Z,18.42
2019-06-20T02:43:48.707Z,18.35
2019-06-20T02:46:18.908Z,18.38
2019-06-20T02:48:50.940Z,18.32
2019-06-20T02:51:24.336Z,18.30
2019-06-20T02:53:54.860Z,18.28
2019-06-20T02:56:25.287Z,18.27
2019-06-20T02:59:02.101Z,18.21
2019-06-20T03:01:35.459Z,18.22
2019-06-20T03:04:05.681Z,18.21
2019-06-20T03:06:37.152Z,18.21
2019-06-20T03:09:07.931Z,18.20
2019-06-20T03:11:38.073Z,18.22
2019-06-20T03:14:08.234Z,18.19
2019-06-20T03:16:39.473Z,18.12
2019-06-20T03:19:12.362Z,18.15
2019-06-20T03:21:43.586Z,18.18
2019-06-20T03:24:18.703Z,18.13
2019-06-20T03:26:48.937Z,18.03
2019-06-20T03:29:19.157Z,18.06
2019-06-20T03:31:52.829Z,18.02
2019-06-20T03:34:29.174Z,17.99
2019-06-20T03:37:03.297Z,18.03
2019-06-20T03:39:33.485Z,17.96
2019-06-20T03:42:05.939Z,17.99
2019-06-20T03:45:01.175Z,18.05
2019-06-20T03:47:17.854Z,18.16
2019-06-20T03:49:48.016Z,18.21
2019-06-20T03:52:25.228Z,18.10
2019-06-20T03:54:58.060Z,18.30
2019-06-20T03:57:31.406Z,18.43
2019-06-20T04:00:03.204Z,18.42
2019-06-20T04:02:33.747Z,18.56
2019-06-20T04:05:08.452Z,18.62
2019-06-20T04:07:44.480Z,18.65
2019-06-20T04:10:20.671Z,18.61
2019-06-20T04:12:50.837Z,18.60
2019-06-20T04:15:21.012Z,18.66
2019-06-20T04:17:53.225Z,18.66
2019-06-20T04:20:23.438Z,18.68
2019-06-20T04:22:59.218Z,18.59
2019-06-20T04:25:29.424Z,18.58
2019-06-20T04:27:59.626Z,18.61
2019-06-20T04:30:30.221Z,18.56
2019-06-20T04:33:02.494Z,18.55
2019-06-20T04:35:36.002Z,18.55
2019-06-20T04:38:08.038Z,18.55
2019-06-20T04:40:40.356Z,18.52
2019-06-20T04:43:11.177Z,18.48
2019-06-20T04:45:51.478Z,18.50
2019-06-20T04:48:24.750Z,18.54
2019-06-20T04:50:56.854Z,18.59
2019-06-20T04:53:27.044Z,18.48
2019-06-20T04:55:57.366Z,18.67
2019-06-20T04:58:28.163Z,18.82
2019-06-20T05:00:58.384Z,18.96
2019-06-20T05:03:29.016Z,18.99
2019-06-20T05:05:59.172Z,19.07
2019-06-20T05:08:29.357Z,19.13
2019-06-20T05:11:00.141Z,19.12
2019-06-20T05:13:30.400Z,19.20
2019-06-20T05:16:00.598Z,19.02
2019-06-20T05:18:30.792Z,19.07
2019-06-20T05:21:00.973Z,19.01
2019-06-20T05:23:31.095Z,19.10
2019-06-20T05:26:01.356Z,19.27
2019-06-20T05:28:32.018Z,19.33
2019-06-20T05:31:05.276Z,19.52
2019-06-20T05:33:40.654Z,19.67
2019-06-20T05:36:12.672Z,19.84
2019-06-20T05:38:42.864Z,19.97
2019-06-20T05:41:14.003Z,20.12
2019-06-20T05:43:44.144Z,20.32
2019-06-20T05:46:14.353Z,20.59
2019-06-20T05:48:44.585Z,20.73
2019-06-20T05:51:15.643Z,20.77
2019-06-20T05:53:45.948Z,21.11
2019-06-20T05:56:16.222Z,21.05
2019-06-20T05:58:46.857Z,21.27
2019-06-20T06:01:17.054Z,21.42
2019-06-20T06:03:47.213Z,21.52
2019-06-20T06:06:20.603Z,21.62
2019-06-20T06:08:51.857Z,21.82
2019-06-20T06:11:22.613Z,21.95
2019-06-20T06:13:53.382Z,21.51
2019-06-20T06:16:27.327Z,21.36
2019-06-20T06:18:58.167Z,21.12
2019-06-20T06:21:28.302Z,21.21
2019-06-20T06:23:58.479Z,21.00
2019-06-20T06:26:28.672Z,20.95
2019-06-20T06:28:58.877Z,20.90
2019-06-20T06:31:31.248Z,20.93
2019-06-20T06:34:02.373Z,20.89
2019-06-20T06:36:34.893Z,20.86
2019-06-20T06:39:13.139Z,20.86
2019-06-20T06:41:43.430Z,20.61
2019-06-20T06:44:15.463Z,20.42
2019-06-20T06:46:54.204Z,20.29
2019-06-20T06:49:20.979Z,20.23
2019-06-20T06:51:51.161Z,20.22
2019-06-20T06:54:21.568Z,20.25
2019-06-20T06:56:51.716Z,20.45
2019-06-20T06:59:21.932Z,20.37
2019-06-20T07:01:53.123Z,20.35
2019-06-20T07:04:23.263Z,20.31
2019-06-20T07:06:53.490Z,20.50
2019-06-20T07:09:23.703Z,20.87
2019-06-20T07:11:56.825Z,21.12
2019-06-20T07:14:26.977Z,21.40
2019-06-20T07:17:00.675Z,21.66
2019-06-20T07:19:29.036Z,22.01
2019-06-20T07:22:02.550Z,21.80
2019-06-20T07:24:32.752Z,21.91
2019-06-20T07:27:03.048Z,22.06
2019-06-20T07:29:33.176Z,22.02
2019-06-20T07:32:03.383Z,21.91
2019-06-20T07:34:33.595Z,21.95
2019-06-20T07:37:03.804Z,21.98
2019-06-20T07:39:33.973Z,22.10
2019-06-20T07:42:04.558Z,22.31
2019-06-20T07:44:34.780Z,22.56
2019-06-20T07:47:16.958Z,22.35
2019-06-20T07:49:41.782Z,22.40
2019-06-20T07:52:09.261Z,22.43
2019-06-20T07:54:39.506Z,22.45
2019-06-20T07:57:10.473Z,22.29
2019-06-20T07:59:42.857Z,22.32
2019-06-20T08:02:16.415Z,22.53
2019-06-20T08:04:46.613Z,22.83
2019-06-20T08:07:19.541Z,23.04
2019-06-20T08:09:50.079Z,23.00
2019-06-20T08:12:20.331Z,23.31
2019-06-20T08:14:50.560Z,23.25
2019-06-20T08:17:34.820Z,23.26
2019-06-20T08:19:52.787Z,23.38
2019-06-20T08:22:23.578Z,23.43
2019-06-20T08:24:54.946Z,23.08
2019-06-20T08:27:43.839Z,22.84
2019-06-20T08:30:16.504Z,22.71
2019-06-20T08:32:46.804Z,22.28
2019-06-20T08:35:24.114Z,22.44
2019-06-20T08:37:56.057Z,22.75
2019-06-20T08:40:27.572Z,22.62
2019-06-20T08:42:58.874Z,22.74
2019-06-20T08:45:34.655Z,22.96
2019-06-20T08:48:04.897Z,23.34
2019-06-20T08:50:40.175Z,24.04
2019-06-20T08:53:10.476Z,23.56
2019-06-20T08:55:40.658Z,22.96
2019-06-20T08:58:10.937Z,22.74
2019-06-20T09:00:41.424Z,22.70
2019-06-20T09:03:13.834Z,22.71
2019-06-20T09:05:44.022Z,22.54
2019-06-20T09:08:14.290Z,22.43
2019-06-20T09:10:44.665Z,22.46
2019-06-20T09:13:15.070Z,22.38
2019-06-20T09:15:45.318Z,22.75
2019-06-20T09:18:15.534Z,22.64
2019-06-20T09:20:45.936Z,22.68
2019-06-20T09:23:16.136Z,22.94
2019-06-20T09:25:46.367Z,23.33
2019-06-20T09:28:19.420Z,23.45
2019-06-20T09:30:50.665Z,23.23
2019-06-20T09:33:21.671Z,23.31
2019-06-20T09:35:53.881Z,23.19
2019-06-20T09:38:24.885Z,22.87
2019-06-20T09:40:55.144Z,22.98
2019-06-20T09:43:27.773Z,23.04
2019-06-20T09:45:58.441Z,23.17
2019-06-20T09:48:28.898Z,23.28
2019-06-20T09:50:59.198Z,23.55
2019-06-20T09:53:29.847Z,23.49
2019-06-20T09:56:00.193Z,23.63
2019-06-20T09:58:30.431Z,23.81
2019-06-20T10:01:00.780Z,23.99
2019-06-20T10:03:33.761Z,24.17
2019-06-20T10:06:13.245Z,24.57
2019-06-20T10:08:36.018Z,24.53
2019-06-20T10:11:06.292Z,24.04
2019-06-20T10:13:36.494Z,23.36
2019-06-20T10:16:07.668Z,22.71
2019-06-20T10:18:39.251Z,22.70
2019-06-20T10:21:09.573Z,23.02
2019-06-20T10:23:39.895Z,23.04
2019-06-20T10:26:10.606Z,23.35
2019-06-20T10:28:40.855Z,23.51
2019-06-20T10:31:11.155Z,23.60
2019-06-20T10:33:41.405Z,24.04
2019-06-20T10:36:14.351Z,23.86
2019-06-20T10:38:45.310Z,23.27
2019-06-20T10:41:16.709Z,23.26
2019-06-20T10:43:47.581Z,22.90
2019-06-20T10:46:17.826Z,23.22
2019-06-20T10:48:48.055Z,23.48
2019-06-20T10:51:52.246Z,23.39
2019-06-20T10:54:22.410Z,23.52
2019-06-20T10:56:52.868Z,23.41
2019-06-20T10:59:24.099Z,23.40
2019-06-20T11:01:54.302Z,23.44
2019-06-20T11:04:24.560Z,23.20
2019-06-20T11:06:54.723Z,23.10
2019-06-20T11:09:24.903Z,23.61
2019-06-20T11:11:55.124Z,23.86
2019-06-20T11:14:26.713Z,24.08
2019-06-20T11:16:56.952Z,24.36
2019-06-20T11:19:27.124Z,24.80
2019-06-20T11:21:57.345Z,24.86
2019-06-20T11:24:30.951Z,25.95
2019-06-20T11:27:01.151Z,26.00
2019-06-20T11:29:31.347Z,26.00
2019-06-20T11:32:01.607Z,26.04
2019-06-20T11:34:31.799Z,25.96
2019-06-20T11:37:01.982Z,25.83
2019-06-20T11:39:35.651Z,25.00
2019-06-20T11:42:06.061Z,24.68
2019-06-20T11:44:37.027Z,24.67
2019-06-20T11:47:07.291Z,25.01
2019-06-20T11:49:38.190Z,25.29
2019-06-20T11:52:08.348Z,24.95
2019-06-20T11:54:40.599Z,25.05
2019-06-20T11:57:10.802Z,25.49
2019-06-20T11:59:40.970Z,25.49
2019-06-20T12:02:11.181Z,25.29
2019-06-20T12:04:41.827Z,24.19
2019-06-20T12:07:13.757Z,24.19
2019-06-20T12:09:44.281Z,24.02
2019-06-20T12:12:14.504Z,24.15
2019-06-20T12:14:44.664Z,24.33
2019-06-20T12:17:15.002Z,24.46
2019-06-20T12:19:46.723Z,24.11
2019-06-20T12:22:16.961Z,24.12
2019-06-20T12:24:47.170Z,24.65
2019-06-20T12:27:17.728Z,24.98
2019-06-20T12:29:49.325Z,25.22
2019-06-20T12:32:21.732Z,25.39
2019-06-20T12:34:52.075Z,25.67
2019-06-20T12:37:22.330Z,25.41
2019-06-20T12:39:52.557Z,25.29
2019-06-20T12:42:22.927Z,25.34
2019-06-20T12:44:53.246Z,25.21
2019-06-20T12:47:23.541Z,24.95
2019-06-20T12:49:53.772Z,24.85
2019-06-20T12:52:24.650Z,24.80
2019-06-20T12:54:55.015Z,25.08
2019-06-20T12:57:26.262Z,25.13
2019-06-20T12:59:56.549Z,25.39
2019-06-20T13:02:26.868Z,25.56
2019-06-20T13:04:57.250Z,25.83
2019-06-20T13:07:27.573Z,25.99
2019-06-20T13:09:57.945Z,25.84
2019-06-20T13:12:28.145Z,25.24
2019-06-20T13:14:58.388Z,25.24
2019-06-20T13:17:28.612Z,25.41
2019-06-20T13:19:58.981Z,25.40
2019-06-20T13:22:29.235Z,25.40
2019-06-20T13:24:59.567Z,25.37
2019-06-20T13:27:30.110Z,25.37
2019-06-20T13:30:00.788Z,24.93
2019-06-20T13:32:31.087Z,25.17
2019-06-20T13:35:03.446Z,25.29
2019-06-20T13:37:33.681Z,25.63
2019-06-20T13:40:04.536Z,25.76
2019-06-20T13:42:34.766Z,25.79
2019-06-20T13:45:05.657Z,25.98
2019-06-20T13:47:35.997Z,26.42
2019-06-20T13:50:09.691Z,26.10
2019-06-20T13:52:43.050Z,26.23
2019-06-20T13:55:12.420Z,26.10
2019-06-20T13:57:45.346Z,26.10
2019-06-20T14:00:15.353Z,26.06
2019-06-20T14:02:47.045Z,25.72
2019-06-20T14:05:17.805Z,25.96
2019-06-20T14:07:53.292Z,26.20
2019-06-20T14:10:22.044Z,26.61
2019-06-20T14:12:54.542Z,26.48
2019-06-20T14:15:24.786Z,26.38
2019-06-20T14:17:55.938Z,26.67
2019-06-20T14:20:26.439Z,27.01
2019-06-20T14:22:57.367Z,27.06
2019-06-20T14:25:27.658Z,26.92
2019-06-20T14:27:59.639Z,27.03
2019-06-20T14:30:33.525Z,27.37
2019-06-20T14:33:06.028Z,27.39
2019-06-20T14:35:38.128Z,27.70
2019-06-20T14:38:12.337Z,27.49
2019-06-20T14:40:44.084Z,27.71
2019-06-20T14:43:14.512Z,27.05
2019-06-20T14:45:45.539Z,27.11
2019-06-20T14:48:17.085Z,27.06
2019-06-20T14:50:47.860Z,26.57
2019-06-20T14:53:21.856Z,26.62
2019-06-20T14:55:52.096Z,27.01
2019-06-20T14:58:24.106Z,28.00
2019-06-20T15:00:54.413Z,28.53
2019-06-20T15:03:24.719Z,28.19
2019-06-20T15:05:54.999Z,27.72
2019-06-20T15:08:25.302Z,27.57
2019-06-20T15:10:55.541Z,27.20
2019-06-20T15:13:25.773Z,26.64
2019-06-20T15:15:56.875Z,26.92
2019-06-20T15:18:27.139Z,27.18
2019-06-20T15:20:59.408Z,27.86
2019-06-20T15:23:29.575Z,29.03
2019-06-20T15:25:59.865Z,30.32
2019-06-20T15:28:30.243Z,29.87
2019-06-20T15:31:00.555Z,30.40
2019-06-20T15:33:30.794Z,30.40
2019-06-20T15:36:01.539Z,30.35
2019-06-20T15:38:31.989Z,29.17
2019-06-20T15:41:02.419Z,29.20
2019-06-20T15:43:35.362Z,28.13
2019-06-20T15:46:05.875Z,28.44
2019-06-20T15:48:36.223Z,28.87
2019-06-20T15:51:06.417Z,29.18
2019-06-20T15:53:36.631Z,28.84
2019-06-20T15:56:06.803Z,28.40
2019-06-20T15:58:37.033Z,28.02
2019-06-20T16:01:07.291Z,27.52
2019-06-20T16:03:39.385Z,27.16
2019-06-20T16:06:09.651Z,27.40
2019-06-20T16:08:39.989Z,28.25
2019-06-20T16:11:13.291Z,29.93
2019-06-20T16:13:43.512Z,30.07
2019-06-20T16:16:13.773Z,28.98
2019-06-20T16:18:43.948Z,28.53
2019-06-20T16:21:14.216Z,28.68
2019-06-20T16:23:44.505Z,27.93
2019-06-20T16:26:14.925Z,27.39
2019-06-20T16:28:45.238Z,26.81
2019-06-20T16:31:26.316Z,26.80
2019-06-20T16:33:47.421Z,26.33
2019-06-20T16:36:18.323Z,26.26
2019-06-20T16:38:49.784Z,26.23
2019-06-20T16:41:21.995Z,26.53
2019-06-20T16:43:52.322Z,26.26
2019-06-20T16:46:22.965Z,26.08
2019-06-20T16:48:53.285Z,26.44
2019-06-20T16:51:25.826Z,26.40
2019-06-20T16:53:59.830Z,26.57
2019-06-20T16:56:32.314Z,26.27
2019-06-20T16:59:06.005Z,26.04
2019-06-20T17:01:36.292Z,25.90
2019-06-20T17:04:06.856Z,25.75
2019-06-20T17:06:38.932Z,25.58
2019-06-20T17:09:09.803Z,25.75
2019-06-20T17:11:40.978Z,25.59
2019-06-20T17:14:11.445Z,25.33
2019-06-20T17:16:41.705Z,25.17
2019-06-20T17:19:12.217Z,24.96
2019-06-20T17:21:42.389Z,24.93
2019-06-20T17:24:13.824Z,24.93
2019-06-20T17:26:45.912Z,24.90
2019-06-20T17:29:16.188Z,24.76
2019-06-20T17:31:48.139Z,24.53
2019-06-20T17:34:18.470Z,24.42
2019-06-20T17:36:48.822Z,24.49
2019-06-20T17:39:19.088Z,24.46
2019-06-20T17:41:55.282Z,24.37
2019-06-20T17:44:26.707Z,24.36
2019-06-20T17:46:58.081Z,24.38
2019-06-20T17:49:28.510Z,24.31
2019-06-20T17:51:58.779Z,24.34
2019-06-20T17:54:32.683Z,24.42
2019-06-20T17:57:05.053Z,24.40
2019-06-20T17:59:35.292Z,24.24
2019-06-20T18:02:05.522Z,24.32
2019-06-20T18:04:36.434Z,24.16
2019-06-20T18:07:06.704Z,24.18
2019-06-20T18:09:37.003Z,24.11
2019-06-20T18:12:10.079Z,24.12
2019-06-20T18:14:41.280Z,23.97
2019-06-20T18:17:11.568Z,23.88
2019-06-20T18:19:44.078Z,23.87
2019-06-20T18:22:17.040Z,23.82
2019-06-20T18:24:47.470Z,23.25
2019-06-20T18:27:18.075Z,22.03
2019-06-20T18:29:52.477Z,20.70
2019-06-20T18:32:49.967Z,20.70
2019-06-20T18:38:07.520Z,20.70
2019-06-20T18:42:09.018Z,-147.80
2019-06-20T18:57:20.644Z,20.70
2019-06-20T19:20:08.291Z,20.70
2019-06-20T19:44:21.087Z,-147.80
2019-06-20T19:46:52.971Z,-147.80
2019-06-20T19:49:25.885Z,-147.80
2019-06-20T19:51:59.061Z,-147.80
2019-06-20T19:54:30.976Z,-147.80
2019-06-20T19:57:04.197Z,20.70
2019-06-20T20:01:25.349Z,-147.80
2019-06-20T20:03:56.045Z,-147.80
2019-06-20T20:06:27.233Z,20.70
2019-06-20T20:09:00.818Z,20.07
2019-06-20T20:11:32.763Z,19.95
2019-06-20T20:14:03.077Z,19.85
2019-06-20T20:16:33.607Z,19.84
2019-06-20T20:19:04.421Z,19.81
2019-06-20T20:21:34.944Z,19.82
2019-06-20T20:24:05.365Z,19.68
2019-06-20T20:26:38.266Z,19.65
2019-06-20T20:29:49.343Z,19.69
2019-06-20T20:32:11.891Z,19.71
2019-06-20T20:34:42.333Z,19.68
2019-06-20T20:37:12.576Z,19.63
2019-06-20T20:39:45.135Z,19.51
2019-06-20T20:42:19.102Z,19.49
2019-06-20T20:44:49.697Z,19.51
2019-06-20T20:47:19.929Z,19.50
2019-06-20T20:49:50.136Z,19.43
2019-06-20T20:52:23.873Z,19.41
2019-06-20T20:54:55.428Z,19.37
2019-06-20T20:57:28.086Z,19.31
2019-06-20T21:00:01.802Z,19.08
2019-06-20T21:02:35.610Z,19.11
2019-06-20T21:05:08.679Z,19.11
2019-06-20T21:07:39.316Z,19.07
2019-06-20T21:10:09.710Z,19.04
2019-06-20T21:12:41.074Z,19.06
2019-06-20T21:15:13.520Z,19.03
2019-06-20T21:17:46.216Z,18.94
2019-06-20T21:20:16.783Z,18.84
2019-06-20T21:22:47.021Z,18.87
2019-06-20T21:25:17.194Z,18.91
2019-06-20T21:27:47.273Z,18.87
2019-06-20T21:30:17.928Z,18.80
2019-06-20T21:32:48.495Z,18.89
2019-06-20T21:35:20.251Z,18.85
2019-06-20T21:37:51.710Z,18.83
2019-06-20T21:40:21.894Z,18.85
2019-06-20T21:42:53.192Z,18.91
2019-06-20T21:45:24.087Z,18.87
2019-06-20T21:47:54.485Z,18.69
2019-06-20T21:50:24.910Z,18.71
2019-06-20T21:52:55.198Z,18.71
2019-06-20T21:55:28.639Z,18.68
2019-06-20T21:57:58.933Z,18.71
2019-06-20T22:00:38.446Z,18.61
2019-06-20T22:03:10.952Z,18.63
2019-06-20T22:05:43.643Z,18.60
2019-06-20T22:08:15.009Z,18.49
2019-06-20T22:10:47.445Z,18.42
2019-06-20T22:13:17.644Z,18.43
2019-06-20T22:15:48.040Z,18.30
2019-06-20T22:18:18.273Z,18.36
2019-06-20T22:20:48.500Z,18.22
2019-06-20T22:23:18.867Z,18.22
2019-06-20T22:25:49.188Z,18.19
2019-06-20T22:28:19.366Z,18.20
2019-06-20T22:30:53.679Z,18.29
2019-06-20T22:33:23.986Z,18.32
2019-06-20T22:35:54.250Z,18.30
2019-06-20T22:38:24.455Z,18.32
2019-06-20T22:40:54.800Z,18.24
2019-06-20T22:43:25.048Z,18.27
2019-06-20T22:45:55.246Z,18.25
2019-06-20T22:48:31.183Z,18.26
2019-06-20T22:51:01.562Z,18.24
2019-06-20T22:53:31.740Z,18.19
2019-06-20T22:56:02.253Z,18.26
2019-06-20T22:58:32.437Z,18.13
2019-06-20T23:01:02.632Z,18.18
2019-06-20T23:03:32.822Z,18.08
2019-06-20T23:06:03.114Z,18.01
2019-06-20T23:08:33.297Z,18.03
2019-06-20T23:11:06.862Z,17.93
2019-06-20T23:13:39.842Z,17.96
2019-06-20T23:16:10.082Z,17.93
2019-06-20T23:18:40.239Z,17.88
2019-06-20T23:21:10.442Z,17.82
2019-06-20T23:23:40.607Z,17.76
2019-06-20T23:26:14.870Z,17.80
2019-06-20T23:28:46.888Z,17.69
2019-06-20T23:31:17.118Z,17.72
2019-06-20T23:33:47.304Z,17.74
2019-06-20T23:36:17.522Z,17.73
2019-06-20T23:38:49.607Z,17.73
2019-06-20T23:41:19.844Z,17.71
2019-06-20T23:43:52.762Z,17.66
2019-06-20T23:46:22.922Z,17.65
2019-06-20T23:48:53.077Z,17.68
2019-06-20T23:51:28.732Z,17.58
2019-06-20T23:54:02.273Z,17.70
2019-06-20T23:56:32.652Z,17.63
2019-06-20T23:59:02.847Z,17.73
